sensor_id;sensor_type;location;lat;lon;timestamp;pressure;altitude;pressure_sealevel;temperature;humidity
20628;BME280;10473;42.734;24.258;2022-08-01T00:02:16;91721.38;;;19.24;56.83
20628;BME280;10473;42.734;24.258;2022-08-01T00:04:45;91714.13;;;19.21;56.87
20628;BME280;10473;42.734;24.258;2022-08-01T00:07:13;91729.56;;;19.17;56.59
20628;BME280;10473;42.734;24.258;2022-08-01T00:09:41;91738.38;;;19.17;56.07
20628;BME280;10473;42.734;24.258;2022-08-01T00:12:08;91722.28;;;19.17;56.42
20628;BME280;10473;42.734;24.258;2022-08-01T00:14:36;91733.63;;;19.09;56.80
20628;BME280;10473;42.734;24.258;2022-08-01T00:17:04;91730.06;;;19.12;57.43
20628;BME280;10473;42.734;24.258;2022-08-01T00:19:32;91715.31;;;19.04;56.64
20628;BME280;10473;42.734;24.258;2022-08-01T00:22:01;91728.41;;;19.02;55.29
20628;BME280;10473;42.734;24.258;2022-08-01T00:24:29;91728.09;;;19.00;55.16
20628;BME280;10473;42.734;24.258;2022-08-01T00:26:57;91711.38;;;18.92;54.03
20628;BME280;10473;42.734;24.258;2022-08-01T00:29:24;91708.78;;;18.89;53.10
20628;BME280;10473;42.734;24.258;2022-08-01T00:31:52;91725.63;;;18.89;52.81
20628;BME280;10473;42.734;24.258;2022-08-01T00:34:20;91724.81;;;18.76;53.17
20628;BME280;10473;42.734;24.258;2022-08-01T00:36:48;91747.03;;;18.77;53.81
20628;BME280;10473;42.734;24.258;2022-08-01T00:39:17;91746.06;;;18.51;53.23
20628;BME280;10473;42.734;24.258;2022-08-01T00:41:45;91743.50;;;18.28;56.46
20628;BME280;10473;42.734;24.258;2022-08-01T00:44:12;91742.53;;;18.19;57.46
20628;BME280;10473;42.734;24.258;2022-08-01T00:46:40;91742.50;;;18.22;57.63
20628;BME280;10473;42.734;24.258;2022-08-01T00:49:08;91731.19;;;18.31;56.20
20628;BME280;10473;42.734;24.258;2022-08-01T00:51:36;91750.09;;;18.43;55.73
20628;BME280;10473;42.734;24.258;2022-08-01T00:54:03;91751.69;;;18.41;55.86
20628;BME280;10473;42.734;24.258;2022-08-01T00:56:32;91727.81;;;18.27;55.69
20628;BME280;10473;42.734;24.258;2022-08-01T00:59:00;91736.63;;;18.27;55.39
20628;BME280;10473;42.734;24.258;2022-08-01T01:01:30;91740.78;;;18.12;55.23
20628;BME280;10473;42.734;24.258;2022-08-01T01:03:58;91739.22;;;18.15;55.21
20628;BME280;10473;42.734;24.258;2022-08-01T01:06:40;91719.94;;;18.20;54.36
20628;BME280;10473;42.734;24.258;2022-08-01T01:09:19;91718.81;;;18.37;54.39
20628;BME280;10473;42.734;24.258;2022-08-01T01:12:02;91712.38;;;18.15;55.27
20628;BME280;10473;42.734;24.258;2022-08-01T01:14:38;91722.31;;;17.98;55.32
20628;BME280;10473;42.734;24.258;2022-08-01T01:17:15;91718.13;;;17.97;54.80
20628;BME280;10473;42.734;24.258;2022-08-01T01:19:47;91721.34;;;17.89;55.05
20628;BME280;10473;42.734;24.258;2022-08-01T01:22:24;91713.53;;;17.78;54.45
20628;BME280;10473;42.734;24.258;2022-08-01T01:25:04;91714.97;;;17.83;53.41
20628;BME280;10473;42.734;24.258;2022-08-01T01:27:44;91724.91;;;18.02;53.00
20628;BME280;10473;42.734;24.258;2022-08-01T01:30:14;91721.25;;;18.12;53.06
20628;BME280;10473;42.734;24.258;2022-08-01T01:32:44;91727.53;;;18.21;53.16
20628;BME280;10473;42.734;24.258;2022-08-01T01:35:19;91720.22;;;18.06;53.26
20628;BME280;10473;42.734;24.258;2022-08-01T01:37:53;91718.84;;;17.98;53.87
20628;BME280;10473;42.734;24.258;2022-08-01T01:40:23;91711.84;;;18.04;53.79
20628;BME280;10473;42.734;24.258;2022-08-01T01:42:54;91707.44;;;18.13;53.85
20628;BME280;10473;42.734;24.258;2022-08-01T01:45:25;91697.00;;;17.99;53.79
20628;BME280;10473;42.734;24.258;2022-08-01T01:47:54;91696.78;;;18.10;53.22
20628;BME280;10473;42.734;24.258;2022-08-01T01:50:24;91702.91;;;18.26;51.97
20628;BME280;10473;42.734;24.258;2022-08-01T01:52:53;91694.53;;;18.24;52.39
20628;BME280;10473;42.734;24.258;2022-08-01T01:55:23;91704.78;;;18.29;52.56
20628;BME280;10473;42.734;24.258;2022-08-01T01:57:53;91701.94;;;18.36;52.36
20628;BME280;10473;42.734;24.258;2022-08-01T02:00:24;91708.75;;;18.41;52.29
20628;BME280;10473;42.734;24.258;2022-08-01T02:02:54;91713.22;;;18.47;51.69
20628;BME280;10473;42.734;24.258;2022-08-01T02:05:24;91703.41;;;18.57;52.25
20628;BME280;10473;42.734;24.258;2022-08-01T02:07:55;91684.63;;;18.21;52.42
20628;BME280;10473;42.734;24.258;2022-08-01T02:10:24;91706.44;;;18.23;51.43
20628;BME280;10473;42.734;24.258;2022-08-01T02:12:52;91707.84;;;18.12;51.92
20628;BME280;10473;42.734;24.258;2022-08-01T02:15:21;91697.13;;;18.12;52.58
20628;BME280;10473;42.734;24.258;2022-08-01T02:17:53;91701.56;;;18.18;52.35
20628;BME280;10473;42.734;24.258;2022-08-01T02:20:22;91711.72;;;18.27;51.96
20628;BME280;10473;42.734;24.258;2022-08-01T02:22:53;91704.44;;;17.92;52.09
20628;BME280;10473;42.734;24.258;2022-08-01T02:25:25;91708.66;;;18.09;53.26
20628;BME280;10473;42.734;24.258;2022-08-01T02:28:00;91701.41;;;18.25;52.94
20628;BME280;10473;42.734;24.258;2022-08-01T02:30:32;91689.75;;;17.61;53.43
20628;BME280;10473;42.734;24.258;2022-08-01T02:33:05;91700.75;;;17.86;53.59
20628;BME280;10473;42.734;24.258;2022-08-01T02:35:37;91685.03;;;17.68;53.03
20628;BME280;10473;42.734;24.258;2022-08-01T02:38:09;91689.13;;;17.73;54.04
20628;BME280;10473;42.734;24.258;2022-08-01T02:40:41;91698.69;;;17.74;53.63
20628;BME280;10473;42.734;24.258;2022-08-01T02:43:10;91697.16;;;17.73;53.70
20628;BME280;10473;42.734;24.258;2022-08-01T02:45:43;91699.56;;;17.87;53.01
20628;BME280;10473;42.734;24.258;2022-08-01T02:48:17;91690.22;;;17.95;53.49
20628;BME280;10473;42.734;24.258;2022-08-01T02:50:49;91697.38;;;17.82;52.63
20628;BME280;10473;42.734;24.258;2022-08-01T02:53:20;91696.13;;;17.86;52.91
20628;BME280;10473;42.734;24.258;2022-08-01T02:55:51;91704.16;;;18.06;52.84
20628;BME280;10473;42.734;24.258;2022-08-01T02:58:20;91705.47;;;17.98;53.25
20628;BME280;10473;42.734;24.258;2022-08-01T03:00:50;91707.31;;;18.01;52.44
20628;BME280;10473;42.734;24.258;2022-08-01T03:03:20;91706.41;;;18.07;52.94
20628;BME280;10473;42.734;24.258;2022-08-01T03:05:49;91713.97;;;18.12;52.39
20628;BME280;10473;42.734;24.258;2022-08-01T03:08:19;91711.63;;;18.14;52.27
20628;BME280;10473;42.734;24.258;2022-08-01T03:10:48;91716.38;;;18.07;52.98
20628;BME280;10473;42.734;24.258;2022-08-01T03:13:17;91710.91;;;17.75;53.50
20628;BME280;10473;42.734;24.258;2022-08-01T03:15:46;91711.25;;;17.77;53.76
20628;BME280;10473;42.734;24.258;2022-08-01T03:18:15;91720.53;;;17.53;54.85
20628;BME280;10473;42.734;24.258;2022-08-01T03:20:46;91722.31;;;17.40;55.32
20628;BME280;10473;42.734;24.258;2022-08-01T03:23:15;91718.94;;;17.55;55.08
20628;BME280;10473;42.734;24.258;2022-08-01T03:25:44;91717.22;;;17.65;55.52
20628;BME280;10473;42.734;24.258;2022-08-01T03:28:14;91715.66;;;17.48;55.81
20628;BME280;10473;42.734;24.258;2022-08-01T03:30:44;91713.91;;;17.38;56.43
20628;BME280;10473;42.734;24.258;2022-08-01T03:33:12;91715.34;;;17.00;57.66
20628;BME280;10473;42.734;24.258;2022-08-01T03:35:47;91728.28;;;16.82;58.36
20628;BME280;10473;42.734;24.258;2022-08-01T03:38:19;91734.44;;;16.26;60.08
20628;BME280;10473;42.734;24.258;2022-08-01T03:40:52;91725.88;;;16.64;59.59
20628;BME280;10473;42.734;24.258;2022-08-01T03:43:24;91740.59;;;16.23;60.92
20628;BME280;10473;42.734;24.258;2022-08-01T03:45:55;91712.91;;;16.10;62.16
20628;BME280;10473;42.734;24.258;2022-08-01T03:48:28;91721.59;;;15.87;62.94
20628;BME280;10473;42.734;24.258;2022-08-01T03:51:02;91718.78;;;15.68;63.58
20628;BME280;10473;42.734;24.258;2022-08-01T03:53:32;91725.91;;;15.78;64.14
20628;BME280;10473;42.734;24.258;2022-08-01T03:56:02;91716.88;;;15.68;64.84
20628;BME280;10473;42.734;24.258;2022-08-01T03:58:31;91730.13;;;15.75;64.59
20628;BME280;10473;42.734;24.258;2022-08-01T04:00:59;91729.66;;;15.54;65.69
20628;BME280;10473;42.734;24.258;2022-08-01T04:03:27;91723.06;;;15.62;65.95
20628;BME280;10473;42.734;24.258;2022-08-01T04:05:55;91727.34;;;15.56;66.34
20628;BME280;10473;42.734;24.258;2022-08-01T04:08:34;91733.84;;;15.55;66.15
20628;BME280;10473;42.734;24.258;2022-08-01T04:11:33;91718.72;;;15.75;66.40
20628;BME280;10473;42.734;24.258;2022-08-01T04:14:20;91720.13;;;15.83;66.39
20628;BME280;10473;42.734;24.258;2022-08-01T04:16:48;91730.94;;;16.02;65.78
20628;BME280;10473;42.734;24.258;2022-08-01T04:19:15;91731.81;;;16.22;65.87
20628;BME280;10473;42.734;24.258;2022-08-01T04:21:43;91730.38;;;16.14;65.79
20628;BME280;10473;42.734;24.258;2022-08-01T04:24:14;91718.19;;;16.13;66.82
20628;BME280;10473;42.734;24.258;2022-08-01T04:26:45;91730.50;;;16.34;66.25
20628;BME280;10473;42.734;24.258;2022-08-01T04:29:15;91723.66;;;16.33;66.17
20628;BME280;10473;42.734;24.258;2022-08-01T04:31:45;91730.56;;;16.57;65.62
20628;BME280;10473;42.734;24.258;2022-08-01T04:34:16;91734.75;;;16.84;65.24
20628;BME280;10473;42.734;24.258;2022-08-01T04:36:45;91734.84;;;16.77;64.79
20628;BME280;10473;42.734;24.258;2022-08-01T04:39:16;91729.41;;;16.81;64.82
20628;BME280;10473;42.734;24.258;2022-08-01T04:41:46;91717.91;;;16.84;65.78
20628;BME280;10473;42.734;24.258;2022-08-01T04:44:14;91729.19;;;17.37;66.41
20628;BME280;10473;42.734;24.258;2022-08-01T04:46:43;91737.38;;;17.73;63.92
20628;BME280;10473;42.734;24.258;2022-08-01T04:49:11;91739.03;;;18.22;64.07
20628;BME280;10473;42.734;24.258;2022-08-01T04:51:51;91724.97;;;18.69;61.35
20628;BME280;10473;42.734;24.258;2022-08-01T04:54:32;91721.34;;;18.92;59.35
20628;BME280;10473;42.734;24.258;2022-08-01T04:57:03;91714.63;;;19.16;58.41
20628;BME280;10473;42.734;24.258;2022-08-01T04:59:32;91725.56;;;19.25;58.81
20628;BME280;10473;42.734;24.258;2022-08-01T05:02:11;91729.25;;;19.15;58.80
20628;BME280;10473;42.734;24.258;2022-08-01T05:04:39;91739.28;;;18.47;60.63
20628;BME280;10473;42.734;24.258;2022-08-01T05:07:08;91726.22;;;18.13;61.22
20628;BME280;10473;42.734;24.258;2022-08-01T05:09:39;91729.72;;;18.10;62.32
20628;BME280;10473;42.734;24.258;2022-08-01T05:12:08;91717.22;;;18.39;61.41
20628;BME280;10473;42.734;24.258;2022-08-01T05:14:37;91726.31;;;18.26;62.44
20628;BME280;10473;42.734;24.258;2022-08-01T05:17:06;91705.63;;;17.52;63.81
20628;BME280;10473;42.734;24.258;2022-08-01T05:19:36;91728.09;;;17.97;63.27
20628;BME280;10473;42.734;24.258;2022-08-01T05:22:05;91727.50;;;18.05;63.22
20628;BME280;10473;42.734;24.258;2022-08-01T05:24:34;91717.47;;;18.09;62.33
20628;BME280;10473;42.734;24.258;2022-08-01T05:27:04;91722.13;;;18.25;62.56
20628;BME280;10473;42.734;24.258;2022-08-01T05:29:34;91721.16;;;18.35;60.76
20628;BME280;10473;42.734;24.258;2022-08-01T05:32:02;91727.53;;;18.41;62.35
20628;BME280;10473;42.734;24.258;2022-08-01T05:34:30;91730.06;;;18.48;62.34
20628;BME280;10473;42.734;24.258;2022-08-01T05:36:58;91728.31;;;18.57;61.27
20628;BME280;10473;42.734;24.258;2022-08-01T05:39:26;91720.78;;;18.52;61.67
20628;BME280;10473;42.734;24.258;2022-08-01T05:41:53;91717.56;;;18.06;61.85
20628;BME280;10473;42.734;24.258;2022-08-01T05:44:23;91726.53;;;18.35;62.03
20628;BME280;10473;42.734;24.258;2022-08-01T05:46:51;91721.91;;;18.35;61.05
20628;BME280;10473;42.734;24.258;2022-08-01T05:49:19;91725.56;;;18.25;61.58
20628;BME280;10473;42.734;24.258;2022-08-01T05:51:46;91729.38;;;18.44;60.95
20628;BME280;10473;42.734;24.258;2022-08-01T05:54:14;91722.00;;;18.48;60.45
20628;BME280;10473;42.734;24.258;2022-08-01T05:56:42;91723.47;;;18.52;60.31
20628;BME280;10473;42.734;24.258;2022-08-01T05:59:09;91716.09;;;18.56;60.55
20628;BME280;10473;42.734;24.258;2022-08-01T06:01:38;91721.88;;;18.71;59.98
20628;BME280;10473;42.734;24.258;2022-08-01T06:04:06;91699.03;;;18.63;59.51
20628;BME280;10473;42.734;24.258;2022-08-01T06:06:34;91705.53;;;18.30;60.68
20628;BME280;10473;42.734;24.258;2022-08-01T06:09:02;91709.25;;;18.16;61.71
20628;BME280;10473;42.734;24.258;2022-08-01T06:11:29;91713.28;;;18.44;61.46
20628;BME280;10473;42.734;24.258;2022-08-01T06:13:57;91707.59;;;18.58;61.27
20628;BME280;10473;42.734;24.258;2022-08-01T06:16:25;91709.63;;;18.70;60.32
20628;BME280;10473;42.734;24.258;2022-08-01T06:18:55;91703.25;;;18.80;59.12
20628;BME280;10473;42.734;24.258;2022-08-01T06:21:22;91691.44;;;18.26;56.65
20628;BME280;10473;42.734;24.258;2022-08-01T06:23:50;91698.41;;;18.59;57.61
20628;BME280;10473;42.734;24.258;2022-08-01T06:26:18;91705.16;;;18.79;57.58
20628;BME280;10473;42.734;24.258;2022-08-01T06:28:46;91713.13;;;18.83;57.24
20628;BME280;10473;42.734;24.258;2022-08-01T06:31:14;91698.84;;;19.02;58.48
20628;BME280;10473;42.734;24.258;2022-08-01T06:33:42;91696.94;;;19.02;57.72
20628;BME280;10473;42.734;24.258;2022-08-01T06:36:11;91696.84;;;19.22;59.18
20628;BME280;10473;42.734;24.258;2022-08-01T06:38:39;91705.53;;;19.42;57.57
20628;BME280;10473;42.734;24.258;2022-08-01T06:41:06;91702.81;;;19.58;57.57
20628;BME280;10473;42.734;24.258;2022-08-01T06:43:34;91692.53;;;19.69;54.93
20628;BME280;10473;42.734;24.258;2022-08-01T06:46:02;91696.09;;;19.78;49.90
20628;BME280;10473;42.734;24.258;2022-08-01T06:48:29;91715.28;;;19.93;49.63
20628;BME280;10473;42.734;24.258;2022-08-01T06:50:57;91704.19;;;19.91;51.43
20628;BME280;10473;42.734;24.258;2022-08-01T06:53:40;91709.09;;;20.08;49.16
20628;BME280;10473;42.734;24.258;2022-08-01T06:56:08;91705.97;;;20.10;48.60
20628;BME280;10473;42.734;24.258;2022-08-01T06:58:35;91705.81;;;20.01;48.07
20628;BME280;10473;42.734;24.258;2022-08-01T07:01:04;91698.56;;;20.14;49.22
20628;BME280;10473;42.734;24.258;2022-08-01T07:03:33;91705.25;;;20.09;50.01
20628;BME280;10473;42.734;24.258;2022-08-01T07:06:01;91711.44;;;20.06;49.60
20628;BME280;10473;42.734;24.258;2022-08-01T07:08:29;91693.94;;;19.86;48.74
20628;BME280;10473;42.734;24.258;2022-08-01T07:10:58;91708.13;;;20.15;49.16
20628;BME280;10473;42.734;24.258;2022-08-01T07:13:26;91701.38;;;20.23;49.53
20628;BME280;10473;42.734;24.258;2022-08-01T07:15:54;91703.19;;;20.26;48.26
20628;BME280;10473;42.734;24.258;2022-08-01T07:18:22;91703.66;;;20.37;48.56
20628;BME280;10473;42.734;24.258;2022-08-01T07:20:50;91708.59;;;20.38;48.52
20628;BME280;10473;42.734;24.258;2022-08-01T07:23:18;91696.53;;;20.43;48.09
20628;BME280;10473;42.734;24.258;2022-08-01T07:25:46;91700.00;;;20.56;47.81
20628;BME280;10473;42.734;24.258;2022-08-01T07:28:16;91709.91;;;20.59;48.23
20628;BME280;10473;42.734;24.258;2022-08-01T07:30:44;91707.00;;;20.53;47.44
20628;BME280;10473;42.734;24.258;2022-08-01T07:33:12;91705.16;;;20.63;47.11
20628;BME280;10473;42.734;24.258;2022-08-01T07:35:40;91689.66;;;20.67;47.52
20628;BME280;10473;42.734;24.258;2022-08-01T07:38:08;91695.03;;;20.67;47.08
20628;BME280;10473;42.734;24.258;2022-08-01T07:40:36;91698.25;;;20.74;46.80
20628;BME280;10473;42.734;24.258;2022-08-01T07:43:04;91696.31;;;20.75;47.93
20628;BME280;10473;42.734;24.258;2022-08-01T07:45:33;91687.25;;;20.81;47.85
20628;BME280;10473;42.734;24.258;2022-08-01T07:48:02;91685.00;;;20.80;48.15
20628;BME280;10473;42.734;24.258;2022-08-01T07:50:30;91692.66;;;20.94;48.43
20628;BME280;10473;42.734;24.258;2022-08-01T07:52:58;91701.06;;;20.96;47.85
20628;BME280;10473;42.734;24.258;2022-08-01T07:55:26;91705.44;;;21.02;47.55
20628;BME280;10473;42.734;24.258;2022-08-01T07:57:53;91687.06;;;21.01;48.68
20628;BME280;10473;42.734;24.258;2022-08-01T08:00:21;91693.94;;;21.02;47.89
20628;BME280;10473;42.734;24.258;2022-08-01T08:02:50;91697.88;;;21.10;47.50
20628;BME280;10473;42.734;24.258;2022-08-01T08:05:18;91697.25;;;21.18;48.70
20628;BME280;10473;42.734;24.258;2022-08-01T08:07:45;91700.22;;;21.33;47.69
20628;BME280;10473;42.734;24.258;2022-08-01T08:10:13;91702.75;;;21.49;48.35
20628;BME280;10473;42.734;24.258;2022-08-01T08:12:40;91701.69;;;21.68;47.53
20628;BME280;10473;42.734;24.258;2022-08-01T08:15:09;91704.78;;;21.91;47.26
20628;BME280;10473;42.734;24.258;2022-08-01T08:17:37;91704.50;;;21.98;46.68
20628;BME280;10473;42.734;24.258;2022-08-01T08:20:07;91705.63;;;22.10;45.45
20628;BME280;10473;42.734;24.258;2022-08-01T08:22:35;91697.19;;;22.08;45.98
20628;BME280;10473;42.734;24.258;2022-08-01T08:25:04;91700.53;;;22.12;46.08
20628;BME280;10473;42.734;24.258;2022-08-01T08:27:31;91704.72;;;22.13;45.52
20628;BME280;10473;42.734;24.258;2022-08-01T08:29:59;91696.44;;;22.29;47.30
20628;BME280;10473;42.734;24.258;2022-08-01T08:32:27;91698.81;;;22.27;46.19
20628;BME280;10473;42.734;24.258;2022-08-01T08:34:54;91710.72;;;22.38;45.33
20628;BME280;10473;42.734;24.258;2022-08-01T08:37:23;91702.97;;;22.40;44.85
20628;BME280;10473;42.734;24.258;2022-08-01T08:39:51;91703.41;;;22.39;45.70
20628;BME280;10473;42.734;24.258;2022-08-01T08:42:19;91714.78;;;22.34;45.40
20628;BME280;10473;42.734;24.258;2022-08-01T08:44:46;91703.81;;;22.07;44.61
20628;BME280;10473;42.734;24.258;2022-08-01T08:47:14;91716.78;;;22.21;45.37
20628;BME280;10473;42.734;24.258;2022-08-01T08:49:43;91697.69;;;22.15;45.89
20628;BME280;10473;42.734;24.258;2022-08-01T08:52:12;91708.00;;;22.08;45.81
20628;BME280;10473;42.734;24.258;2022-08-01T08:54:41;91712.53;;;22.11;45.47
20628;BME280;10473;42.734;24.258;2022-08-01T08:57:10;91704.72;;;22.13;45.51
20628;BME280;10473;42.734;24.258;2022-08-01T08:59:40;91703.22;;;22.12;45.92
20628;BME280;10473;42.734;24.258;2022-08-01T09:02:10;91702.66;;;22.17;47.30
20628;BME280;10473;42.734;24.258;2022-08-01T09:04:38;91703.84;;;22.16;45.44
20628;BME280;10473;42.734;24.258;2022-08-01T09:07:06;91717.28;;;22.28;45.89
20628;BME280;10473;42.734;24.258;2022-08-01T09:09:34;91704.78;;;22.22;44.96
20628;BME280;10473;42.734;24.258;2022-08-01T09:12:05;91707.72;;;22.58;46.17
20628;BME280;10473;42.734;24.258;2022-08-01T09:14:33;91703.75;;;22.80;45.70
20628;BME280;10473;42.734;24.258;2022-08-01T09:17:04;91719.97;;;22.89;46.78
20628;BME280;10473;42.734;24.258;2022-08-01T09:19:37;91712.19;;;22.91;45.18
20628;BME280;10473;42.734;24.258;2022-08-01T09:22:06;91707.88;;;23.03;44.10
20628;BME280;10473;42.734;24.258;2022-08-01T09:24:34;91710.00;;;23.08;45.11
20628;BME280;10473;42.734;24.258;2022-08-01T09:27:15;91707.00;;;23.15;44.69
20628;BME280;10473;42.734;24.258;2022-08-01T09:29:44;91708.94;;;23.05;44.59
20628;BME280;10473;42.734;24.258;2022-08-01T09:32:12;91712.63;;;22.90;46.81
20628;BME280;10473;42.734;24.258;2022-08-01T09:34:39;91706.13;;;23.18;48.83
20628;BME280;10473;42.734;24.258;2022-08-01T09:37:07;91690.56;;;23.58;47.34
20628;BME280;10473;42.734;24.258;2022-08-01T09:39:36;91690.53;;;23.85;45.65
20628;BME280;10473;42.734;24.258;2022-08-01T09:42:21;91701.22;;;24.15;43.57
20628;BME280;10473;42.734;24.258;2022-08-01T09:44:49;91705.38;;;24.43;47.87
20628;BME280;10473;42.734;24.258;2022-08-01T09:47:18;91705.31;;;24.70;44.70
20628;BME280;10473;42.734;24.258;2022-08-01T09:49:55;91703.91;;;24.84;42.80
20628;BME280;10473;42.734;24.258;2022-08-01T09:52:24;91708.34;;;24.73;42.66
20628;BME280;10473;42.734;24.258;2022-08-01T09:54:53;91710.19;;;24.99;42.75
20628;BME280;10473;42.734;24.258;2022-08-01T09:57:23;91712.56;;;25.06;40.38
20628;BME280;10473;42.734;24.258;2022-08-01T09:59:53;91710.88;;;24.76;40.77
20628;BME280;10473;42.734;24.258;2022-08-01T10:02:29;91722.50;;;25.09;41.35
20628;BME280;10473;42.734;24.258;2022-08-01T10:05:00;91711.56;;;25.18;41.85
20628;BME280;10473;42.734;24.258;2022-08-01T10:07:28;91715.41;;;25.44;43.17
20628;BME280;10473;42.734;24.258;2022-08-01T10:09:56;91717.53;;;25.40;40.56
20628;BME280;10473;42.734;24.258;2022-08-01T10:12:37;91703.72;;;25.53;39.91
20628;BME280;10473;42.734;24.258;2022-08-01T10:15:08;91708.84;;;25.74;40.45
20628;BME280;10473;42.734;24.258;2022-08-01T10:17:39;91704.63;;;25.26;41.08
20628;BME280;10473;42.734;24.258;2022-08-01T10:20:09;91708.84;;;25.51;40.76
20628;BME280;10473;42.734;24.258;2022-08-01T10:22:37;91706.63;;;25.49;40.18
20628;BME280;10473;42.734;24.258;2022-08-01T10:25:06;91714.00;;;25.49;40.10
20628;BME280;10473;42.734;24.258;2022-08-01T10:27:38;91718.34;;;25.55;41.04
20628;BME280;10473;42.734;24.258;2022-08-01T10:30:07;91709.44;;;25.55;39.98
20628;BME280;10473;42.734;24.258;2022-08-01T10:32:36;91715.09;;;25.42;39.37
20628;BME280;10473;42.734;24.258;2022-08-01T10:35:05;91713.66;;;25.23;40.34
20628;BME280;10473;42.734;24.258;2022-08-01T10:37:33;91717.75;;;25.28;38.99
20628;BME280;10473;42.734;24.258;2022-08-01T10:40:01;91713.66;;;25.23;40.49
20628;BME280;10473;42.734;24.258;2022-08-01T10:42:31;91719.38;;;25.25;42.39
20628;BME280;10473;42.734;24.258;2022-08-01T10:45:00;91717.97;;;25.06;40.96
20628;BME280;10473;42.734;24.258;2022-08-01T10:47:35;91705.47;;;24.67;39.97
20628;BME280;10473;42.734;24.258;2022-08-01T10:50:11;91706.03;;;24.80;41.37
20628;BME280;10473;42.734;24.258;2022-08-01T10:52:40;91705.88;;;24.83;42.37
20628;BME280;10473;42.734;24.258;2022-08-01T10:55:08;91707.63;;;24.95;43.76
20628;BME280;10473;42.734;24.258;2022-08-01T10:57:43;91706.56;;;24.93;39.91
20628;BME280;10473;42.734;24.258;2022-08-01T11:00:17;91705.66;;;24.96;40.30
20628;BME280;10473;42.734;24.258;2022-08-01T11:02:57;91703.19;;;25.07;41.42
20628;BME280;10473;42.734;24.258;2022-08-01T11:05:28;91705.38;;;24.94;40.50
20628;BME280;10473;42.734;24.258;2022-08-01T11:08:01;91704.31;;;24.50;40.99
20628;BME280;10473;42.734;24.258;2022-08-01T11:10:36;91700.97;;;24.64;44.99
20628;BME280;10473;42.734;24.258;2022-08-01T11:13:04;91697.53;;;24.96;44.83
20628;BME280;10473;42.734;24.258;2022-08-01T11:15:35;91695.31;;;25.18;42.49
20628;BME280;10473;42.734;24.258;2022-08-01T11:18:28;91697.66;;;25.34;41.48
20628;BME280;10473;42.734;24.258;2022-08-01T11:20:55;91693.50;;;25.48;41.72
20628;BME280;10473;42.734;24.258;2022-08-01T11:23:28;91692.91;;;25.67;41.67
20628;BME280;10473;42.734;24.258;2022-08-01T11:26:10;91697.53;;;25.76;41.90
20628;BME280;10473;42.734;24.258;2022-08-01T11:28:38;91693.47;;;25.95;42.34
20628;BME280;10473;42.734;24.258;2022-08-01T11:31:29;91696.03;;;26.13;42.68
20628;BME280;10473;42.734;24.258;2022-08-01T11:33:59;91691.25;;;26.08;39.63
20628;BME280;10473;42.734;24.258;2022-08-01T11:36:27;91692.94;;;26.20;37.81
20628;BME280;10473;42.734;24.258;2022-08-01T11:39:14;91684.63;;;25.14;40.53
20628;BME280;10473;42.734;24.258;2022-08-01T11:41:43;91684.88;;;24.51;42.34
20628;BME280;10473;42.734;24.258;2022-08-01T11:44:16;91680.19;;;25.02;41.98
20628;BME280;10473;42.734;24.258;2022-08-01T11:47:02;91686.47;;;25.41;41.39
20628;BME280;10473;42.734;24.258;2022-08-01T11:49:38;91688.50;;;25.32;40.44
20628;BME280;10473;42.734;24.258;2022-08-01T11:52:13;91683.53;;;24.98;41.66
20628;BME280;10473;42.734;24.258;2022-08-01T11:54:43;91682.38;;;25.13;42.53
20628;BME280;10473;42.734;24.258;2022-08-01T11:57:12;91693.28;;;25.37;40.71
20628;BME280;10473;42.734;24.258;2022-08-01T11:59:42;91680.66;;;25.48;41.58
20628;BME280;10473;42.734;24.258;2022-08-01T12:02:23;91686.41;;;24.52;41.31
20628;BME280;10473;42.734;24.258;2022-08-01T12:04:54;91692.28;;;24.92;41.79
20628;BME280;10473;42.734;24.258;2022-08-01T12:07:23;91687.69;;;24.75;41.34
20628;BME280;10473;42.734;24.258;2022-08-01T12:10:00;91691.03;;;25.02;41.42
20628;BME280;10473;42.734;24.258;2022-08-01T12:12:29;91688.94;;;24.65;41.16
20628;BME280;10473;42.734;24.258;2022-08-01T12:14:59;91687.00;;;24.47;41.26
20628;BME280;10473;42.734;24.258;2022-08-01T12:17:35;91667.72;;;24.54;42.59
20628;BME280;10473;42.734;24.258;2022-08-01T12:20:05;91681.84;;;25.00;43.65
20628;BME280;10473;42.734;24.258;2022-08-01T12:22:33;91682.47;;;25.28;39.69
20628;BME280;10473;42.734;24.258;2022-08-01T12:25:08;91678.59;;;25.43;42.71
20628;BME280;10473;42.734;24.258;2022-08-01T12:27:37;91680.03;;;25.30;40.59
20628;BME280;10473;42.734;24.258;2022-08-01T12:30:07;91669.78;;;25.01;40.94
20628;BME280;10473;42.734;24.258;2022-08-01T12:32:38;91658.44;;;24.79;41.52
20628;BME280;10473;42.734;24.258;2022-08-01T12:35:07;91665.81;;;24.88;42.28
20628;BME280;10473;42.734;24.258;2022-08-01T12:37:35;91673.56;;;25.27;42.34
20628;BME280;10473;42.734;24.258;2022-08-01T12:40:10;91658.50;;;25.02;41.25
20628;BME280;10473;42.734;24.258;2022-08-01T12:42:38;91673.75;;;24.91;40.80
20628;BME280;10473;42.734;24.258;2022-08-01T12:45:08;91664.25;;;24.95;41.41
20628;BME280;10473;42.734;24.258;2022-08-01T12:47:38;91671.44;;;25.31;40.65
20628;BME280;10473;42.734;24.258;2022-08-01T12:50:08;91671.63;;;25.51;41.49
20628;BME280;10473;42.734;24.258;2022-08-01T12:52:37;91666.63;;;25.73;39.71
20628;BME280;10473;42.734;24.258;2022-08-01T12:55:11;91668.91;;;25.89;38.94
20628;BME280;10473;42.734;24.258;2022-08-01T12:57:41;91677.69;;;25.84;39.54
20628;BME280;10473;42.734;24.258;2022-08-01T13:00:14;91668.00;;;25.69;40.39
20628;BME280;10473;42.734;24.258;2022-08-01T13:02:46;91661.41;;;25.84;39.63
20628;BME280;10473;42.734;24.258;2022-08-01T13:05:15;91675.50;;;25.97;39.81
20628;BME280;10473;42.734;24.258;2022-08-01T13:07:46;91674.28;;;25.98;38.96